sensor_id;sensor_type;location;lat;lon;timestamp;P1;P2;P0
80861;PMS5003;71798;54.942;73.444;2023-08-12T00:18:30;6.00;5.00;3.00
80861;PMS5003;71798;54.942;73.444;2023-08-12T00:21:06;6.00;5.00;3.00
80861;PMS5003;71798;54.942;73.444;2023-08-12T00:23:36;5.25;5.00;2.00
80861;PMS5003;71798;54.942;73.444;2023-08-12T00:26:03;5.00;4.75;3.00
80861;PMS5003;71798;54.942;73.444;2023-08-12T00:28:29;4.00;4.00;2.50
80861;PMS5003;71798;54.942;73.444;2023-08-12T00:30:55;4.00;4.00;3.00
80861;PMS5003;71798;54.942;73.444;2023-08-12T00:33:21;5.00;4.00;2.00
80861;PMS5003;71798;54.942;73.444;2023-08-12T00:35:47;5.00;5.00;2.00
80861;PMS5003;71798;54.942;73.444;2023-08-12T00:38:13;4.00;4.00;2.25
80861;PMS5003;71798;54.942;73.444;2023-08-12T00:40:41;5.00;4.00;3.00
80861;PMS5003;71798;54.942;73.444;2023-08-12T00:43:07;5.00;4.00;2.00
80861;PMS5003;71798;54.942;73.444;2023-08-12T00:45:35;6.00;5.00;2.00
80861;PMS5003;71798;54.942;73.444;2023-08-12T00:48:02;3.25;3.00;2.00
80861;PMS5003;71798;54.942;73.444;2023-08-12T00:50:28;10.50;9.00;5.50
80861;PMS5003;71798;54.942;73.444;2023-08-12T00:52:56;6.00;5.00;3.00
80861;PMS5003;71798;54.942;73.444;2023-08-12T00:55:24;5.75;5.00;3.00
80861;PMS5003;71798;54.942;73.444;2023-08-12T00:57:50;5.00;4.00;2.00
80861;PMS5003;71798;54.942;73.444;2023-08-12T01:00:16;5.00;4.00;3.00
80861;PMS5003;71798;54.942;73.444;2023-08-12T01:02:44;4.00;4.00;3.00
80861;PMS5003;71798;54.942;73.444;2023-08-12T01:05:14;5.50;5.00;3.75
80861;PMS5003;71798;54.942;73.444;2023-08-12T01:07:40;5.00;4.00;3.00
80861;PMS5003;71798;54.942;73.444;2023-08-12T01:10:06;4.75;4.00;2.75
80861;PMS5003;71798;54.942;73.444;2023-08-12T01:12:35;6.00;5.00;3.00
80861;PMS5003;71798;54.942;73.444;2023-08-12T01:15:10;7.00;6.00;4.00
80861;PMS5003;71798;54.942;73.444;2023-08-12T01:17:41;8.00;6.00;3.00
80861;PMS5003;71798;54.942;73.444;2023-08-12T01:20:08;6.25;6.00;4.00
80861;PMS5003;71798;54.942;73.444;2023-08-12T01:22:38;6.00;6.00;4.00
80861;PMS5003;71798;54.942;73.444;2023-08-12T01:25:06;7.00;6.00;3.00
80861;PMS5003;71798;54.942;73.444;2023-08-12T01:27:34;7.00;6.00;3.00
80861;PMS5003;71798;54.942;73.444;2023-08-12T01:30:00;9.00;8.00;4.75
80861;PMS5003;71798;54.942;73.444;2023-08-12T01:32:41;8.00;6.75;4.00
80861;PMS5003;71798;54.942;73.444;2023-08-12T01:37:45;8.75;7.00;4.00
80861;PMS5003;71798;54.942;73.444;2023-08-12T01:40:12;6.00;6.00;4.00
80861;PMS5003;71798;54.942;73.444;2023-08-12T01:42:40;7.00;6.50;4.00
80861;PMS5003;71798;54.942;73.444;2023-08-12T01:45:07;8.00;7.00;5.00
80861;PMS5003;71798;54.942;73.444;2023-08-12T01:47:33;8.00;7.00;4.00
80861;PMS5003;71798;54.942;73.444;2023-08-12T01:49:59;7.00;6.00;4.00
80861;PMS5003;71798;54.942;73.444;2023-08-12T01:52:27;8.00;7.00;4.00
80861;PMS5003;71798;54.942;73.444;2023-08-12T01:54:54;6.00;6.00;4.00
80861;PMS5003;71798;54.942;73.444;2023-08-12T01:57:21;8.00;7.00;5.00
80861;PMS5003;71798;54.942;73.444;2023-08-12T01:59:47;10.00;8.00;5.00
80861;PMS5003;71798;54.942;73.444;2023-08-12T02:02:13;8.00;7.00;5.00
80861;PMS5003;71798;54.942;73.444;2023-08-12T02:04:47;8.75;7.75;5.00
80861;PMS5003;71798;54.942;73.444;2023-08-12T02:07:13;9.00;8.00;5.00
80861;PMS5003;71798;54.942;73.444;2023-08-12T02:09:39;9.50;8.50;5.00
80861;PMS5003;71798;54.942;73.444;2023-08-12T02:12:05;7.00;7.00;5.00
80861;PMS5003;71798;54.942;73.444;2023-08-12T02:14:32;8.00;7.00;4.00
80861;PMS5003;71798;54.942;73.444;2023-08-12T02:16:58;10.50;9.00;5.75
80861;PMS5003;71798;54.942;73.444;2023-08-12T02:19:24;8.00;7.00;4.00
80861;PMS5003;71798;54.942;73.444;2023-08-12T02:21:52;9.00;7.75;4.00
80861;PMS5003;71798;54.942;73.444;2023-08-12T02:24:18;10.00;9.00;6.00
80861;PMS5003;71798;54.942;73.444;2023-08-12T02:26:44;7.00;6.00;5.00
80861;PMS5003;71798;54.942;73.444;2023-08-12T02:29:10;9.75;8.00;6.00
80861;PMS5003;71798;54.942;73.444;2023-08-12T02:31:36;9.00;8.00;5.00
80861;PMS5003;71798;54.942;73.444;2023-08-12T02:34:03;7.00;6.00;4.00
80861;PMS5003;71798;54.942;73.444;2023-08-12T02:36:29;6.75;6.00;4.00
80861;PMS5003;71798;54.942;73.444;2023-08-12T02:38:56;5.75;5.75;3.75
80861;PMS5003;71798;54.942;73.444;2023-08-12T02:41:22;7.00;6.00;4.00
80861;PMS5003;71798;54.942;73.444;2023-08-12T02:43:48;8.00;7.00;4.75
80861;PMS5003;71798;54.942;73.444;2023-08-12T02:46:14;9.00;8.00;4.00
80861;PMS5003;71798;54.942;73.444;2023-08-12T02:48:42;9.00;8.00;5.00
80861;PMS5003;71798;54.942;73.444;2023-08-12T02:51:08;9.00;8.00;4.00
80861;PMS5003;71798;54.942;73.444;2023-08-12T02:53:35;8.25;8.00;5.00
80861;PMS5003;71798;54.942;73.444;2023-08-12T02:56:02;10.00;9.00;5.00
80861;PMS5003;71798;54.942;73.444;2023-08-12T02:58:28;9.00;7.25;5.00
80861;PMS5003;71798;54.942;73.444;2023-08-12T03:00:54;7.75;7.00;4.75
80861;PMS5003;71798;54.942;73.444;2023-08-12T03:03:20;8.00;7.00;4.00
80861;PMS5003;71798;54.942;73.444;2023-08-12T03:05:47;6.75;5.75;4.00
80861;PMS5003;71798;54.942;73.444;2023-08-12T03:08:14;9.00;8.00;5.00
80861;PMS5003;71798;54.942;73.444;2023-08-12T03:10:40;8.00;7.00;4.00
80861;PMS5003;71798;54.942;73.444;2023-08-12T03:13:08;7.00;6.00;4.00
80861;PMS5003;71798;54.942;73.444;2023-08-12T03:15:34;8.00;8.00;5.00
80861;PMS5003;71798;54.942;73.444;2023-08-12T03:18:00;9.00;8.00;5.00
80861;PMS5003;71798;54.942;73.444;2023-08-12T03:20:26;7.50;7.00;4.00
80861;PMS5003;71798;54.942;73.444;2023-08-12T03:22:53;8.00;7.00;4.00
80861;PMS5003;71798;54.942;73.444;2023-08-12T03:25:19;9.00;8.00;5.00
80861;PMS5003;71798;54.942;73.444;2023-08-12T03:27:46;8.00;7.00;4.00
80861;PMS5003;71798;54.942;73.444;2023-08-12T03:30:12;7.00;6.00;4.00
80861;PMS5003;71798;54.942;73.444;2023-08-12T03:32:39;10.25;8.00;5.00
80861;PMS5003;71798;54.942;73.444;2023-08-12T03:35:05;7.00;6.00;4.00
80861;PMS5003;71798;54.942;73.444;2023-08-12T03:37:32;9.00;8.00;5.00
80861;PMS5003;71798;54.942;73.444;2023-08-12T03:39:58;7.75;7.00;4.75
80861;PMS5003;71798;54.942;73.444;2023-08-12T03:42:26;8.00;8.00;5.00
80861;PMS5003;71798;54.942;73.444;2023-08-12T03:44:52;6.00;5.00;3.00
80861;PMS5003;71798;54.942;73.444;2023-08-12T03:47:19;5.00;5.00;3.00
80861;PMS5003;71798;54.942;73.444;2023-08-12T03:49:50;7.00;7.00;4.25
80861;PMS5003;71798;54.942;73.444;2023-08-12T03:52:16;7.00;6.75;4.00
80861;PMS5003;71798;54.942;73.444;2023-08-12T03:54:42;6.00;6.00;4.00
80861;PMS5003;71798;54.942;73.444;2023-08-12T03:57:09;6.00;5.00;3.00
80861;PMS5003;71798;54.942;73.444;2023-08-12T03:59:36;7.00;6.00;4.00
80861;PMS5003;71798;54.942;73.444;2023-08-12T04:02:02;5.00;5.00;3.50
80861;PMS5003;71798;54.942;73.444;2023-08-12T04:04:29;5.00;4.00;3.00
80861;PMS5003;71798;54.942;73.444;2023-08-12T04:06:57;5.00;5.00;3.00
80861;PMS5003;71798;54.942;73.444;2023-08-12T04:09:23;4.00;4.00;3.00
80861;PMS5003;71798;54.942;73.444;2023-08-12T04:11:50;4.00;4.00;3.00
80861;PMS5003;71798;54.942;73.444;2023-08-12T04:14:16;4.00;4.00;2.00
80861;PMS5003;71798;54.942;73.444;2023-08-12T04:16:43;4.00;4.00;2.00
80861;PMS5003;71798;54.942;73.444;2023-08-12T04:19:09;3.00;2.75;1.50
80861;PMS5003;71798;54.942;73.444;2023-08-12T04:21:35;3.00;3.00;2.00
80861;PMS5003;71798;54.942;73.444;2023-08-12T04:24:01;3.00;3.00;2.00
80861;PMS5003;71798;54.942;73.444;2023-08-12T04:26:29;4.25;4.00;2.00
80861;PMS5003;71798;54.942;73.444;2023-08-12T04:28:56;4.00;3.00;2.00
80861;PMS5003;71798;54.942;73.444;2023-08-12T04:31:22;2.50;2.50;2.00
80861;PMS5003;71798;54.942;73.444;2023-08-12T04:33:50;3.00;3.00;2.00
80861;PMS5003;71798;54.942;73.444;2023-08-12T04:36:20;4.00;3.00;2.00
80861;PMS5003;71798;54.942;73.444;2023-08-12T04:38:46;4.00;4.00;2.00
80861;PMS5003;71798;54.942;73.444;2023-08-12T04:41:12;5.00;5.00;3.00
80861;PMS5003;71798;54.942;73.444;2023-08-12T04:43:38;4.00;4.00;2.00
80861;PMS5003;71798;54.942;73.444;2023-08-12T04:46:04;4.00;3.00;2.00
80861;PMS5003;71798;54.942;73.444;2023-08-12T04:48:31;4.00;4.00;3.00
80861;PMS5003;71798;54.942;73.444;2023-08-12T04:50:57;3.00;3.00;2.00
80861;PMS5003;71798;54.942;73.444;2023-08-12T04:53:27;4.00;3.00;2.00
80861;PMS5003;71798;54.942;73.444;2023-08-12T04:55:55;4.00;3.75;2.00
80861;PMS5003;71798;54.942;73.444;2023-08-12T04:58:21;4.00;3.00;2.00
80861;PMS5003;71798;54.942;73.444;2023-08-12T05:00:48;5.00;5.00;3.00
80861;PMS5003;71798;54.942;73.444;2023-08-12T05:03:14;3.75;3.00;2.00
80861;PMS5003;71798;54.942;73.444;2023-08-12T05:05:40;3.00;3.00;1.75
80861;PMS5003;71798;54.942;73.444;2023-08-12T05:08:07;2.00;2.00;1.00
80861;PMS5003;71798;54.942;73.444;2023-08-12T05:10:34;3.00;3.00;2.00
80861;PMS5003;71798;54.942;73.444;2023-08-12T05:13:01;2.00;2.00;1.00
80861;PMS5003;71798;54.942;73.444;2023-08-12T05:15:27;3.00;3.00;2.00
80861;PMS5003;71798;54.942;73.444;2023-08-12T05:17:54;4.00;4.00;2.50
80861;PMS5003;71798;54.942;73.444;2023-08-12T05:20:22;3.00;2.00;1.25
80861;PMS5003;71798;54.942;73.444;2023-08-12T05:22:48;3.00;3.00;1.00
80861;PMS5003;71798;54.942;73.444;2023-08-12T05:25:14;3.75;3.00;2.00
80861;PMS5003;71798;54.942;73.444;2023-08-12T05:27:40;3.00;3.00;2.00
80861;PMS5003;71798;54.942;73.444;2023-08-12T05:30:07;3.00;3.00;2.00
80861;PMS5003;71798;54.942;73.444;2023-08-12T05:32:33;2.00;2.00;1.00
80861;PMS5003;71798;54.942;73.444;2023-08-12T05:34:59;3.00;3.00;2.00
80861;PMS5003;71798;54.942;73.444;2023-08-12T05:37:25;5.00;4.00;3.25
80861;PMS5003;71798;54.942;73.444;2023-08-12T05:39:51;5.00;4.00;3.00
80861;PMS5003;71798;54.942;73.444;2023-08-12T05:42:17;5.00;4.00;3.00
80861;PMS5003;71798;54.942;73.444;2023-08-12T05:44:43;5.00;4.00;3.00
80861;PMS5003;71798;54.942;73.444;2023-08-12T05:47:09;5.00;4.75;3.00
80861;PMS5003;71798;54.942;73.444;2023-08-12T05:49:36;4.00;4.00;3.00
80861;PMS5003;71798;54.942;73.444;2023-08-12T05:52:02;5.00;4.00;2.75
80861;PMS5003;71798;54.942;73.444;2023-08-12T05:54:28;5.00;4.00;2.00
80861;PMS5003;71798;54.942;73.444;2023-08-12T05:56:54;4.00;4.00;3.00
80861;PMS5003;71798;54.942;73.444;2023-08-12T05:59:20;5.00;4.00;3.00
80861;PMS5003;71798;54.942;73.444;2023-08-12T06:01:47;4.00;3.00;2.00
80861;PMS5003;71798;54.942;73.444;2023-08-12T06:04:13;5.00;4.00;3.00
80861;PMS5003;71798;54.942;73.444;2023-08-12T06:06:40;4.00;4.00;3.00
80861;PMS5003;71798;54.942;73.444;2023-08-12T06:09:06;5.00;5.00;3.25
80861;PMS5003;71798;54.942;73.444;2023-08-12T06:11:32;5.00;5.00;3.00
80861;PMS5003;71798;54.942;73.444;2023-08-12T06:13:59;5.00;4.00;3.00
80861;PMS5003;71798;54.942;73.444;2023-08-12T06:16:25;6.00;5.00;3.00
80861;PMS5003;71798;54.942;73.444;2023-08-12T06:18:52;4.00;4.00;3.00
80861;PMS5003;71798;54.942;73.444;2023-08-12T06:21:18;4.00;3.25;2.75
80861;PMS5003;71798;54.942;73.444;2023-08-12T06:23:44;5.50;5.00;3.00
80861;PMS5003;71798;54.942;73.444;2023-08-12T06:26:10;4.00;3.00;2.00
80861;PMS5003;71798;54.942;73.444;2023-08-12T06:28:36;6.00;5.00;4.00
80861;PMS5003;71798;54.942;73.444;2023-08-12T06:31:02;6.00;5.00;3.00
80861;PMS5003;71798;54.942;73.444;2023-08-12T06:33:28;3.50;3.00;2.00
80861;PMS5003;71798;54.942;73.444;2023-08-12T06:35:55;3.75;3.00;2.00
80861;PMS5003;71798;54.942;73.444;2023-08-12T06:38:21;4.00;3.00;2.00
80861;PMS5003;71798;54.942;73.444;2023-08-12T06:40:47;3.50;3.00;2.00
80861;PMS5003;71798;54.942;73.444;2023-08-12T06:43:13;4.00;4.00;2.00
80861;PMS5003;71798;54.942;73.444;2023-08-12T06:45:39;4.00;4.00;2.75
80861;PMS5003;71798;54.942;73.444;2023-08-12T06:48:05;5.00;4.00;3.00
80861;PMS5003;71798;54.942;73.444;2023-08-12T06:50:31;4.00;3.00;2.00
80861;PMS5003;71798;54.942;73.444;2023-08-12T06:52:59;3.00;3.00;2.00
80861;PMS5003;71798;54.942;73.444;2023-08-12T06:55:26;3.00;3.00;2.00
80861;PMS5003;71798;54.942;73.444;2023-08-12T06:57:52;3.00;3.00;2.00
80861;PMS5003;71798;54.942;73.444;2023-08-12T07:00:18;4.00;4.00;2.00
80861;PMS5003;71798;54.942;73.444;2023-08-12T07:02:44;5.25;5.00;3.00
80861;PMS5003;71798;54.942;73.444;2023-08-12T07:05:10;16.50;14.50;9.50
80861;PMS5003;71798;54.942;73.444;2023-08-12T07:07:36;4.00;4.00;3.00
80861;PMS5003;71798;54.942;73.444;2023-08-12T07:10:02;6.00;5.00;3.00
80861;PMS5003;71798;54.942;73.444;2023-08-12T07:12:30;4.00;3.00;2.00
80861;PMS5003;71798;54.942;73.444;2023-08-12T07:14:56;3.50;3.00;2.00
80861;PMS5003;71798;54.942;73.444;2023-08-12T07:17:22;4.00;3.75;2.00
80861;PMS5003;71798;54.942;73.444;2023-08-12T07:19:48;3.00;3.00;2.00
80861;PMS5003;71798;54.942;73.444;2023-08-12T07:22:14;5.50;5.00;3.00
80861;PMS5003;71798;54.942;73.444;2023-08-12T07:25:47;6.00;5.00;3.50
80861;PMS5003;71798;54.942;73.444;2023-08-12T07:29:19;4.00;4.00;2.00
80861;PMS5003;71798;54.942;73.444;2023-08-12T07:32:50;5.00;4.00;2.00
80861;PMS5003;71798;54.942;73.444;2023-08-12T07:40:23;4.00;4.00;2.00
80861;PMS5003;71798;54.942;73.444;2023-08-12T07:43:54;3.00;3.00;2.00
80861;PMS5003;71798;54.942;73.444;2023-08-12T07:51:01;4.00;3.00;2.00
80861;PMS5003;71798;54.942;73.444;2023-08-12T07:54:32;5.00;4.00;2.00
80861;PMS5003;71798;54.942;73.444;2023-08-12T07:58:05;5.00;5.00;3.00
80861;PMS5003;71798;54.942;73.444;2023-08-12T08:01:36;5.00;5.00;3.00
80861;PMS5003;71798;54.942;73.444;2023-08-12T08:04:02;7.00;5.25;3.00
80861;PMS5003;71798;54.942;73.444;2023-08-12T08:07:33;4.00;3.00;3.00
80861;PMS5003;71798;54.942;73.444;2023-08-12T08:11:29;5.00;4.25;3.00
80861;PMS5003;71798;54.942;73.444;2023-08-12T08:15:01;4.00;3.00;2.00
80861;PMS5003;71798;54.942;73.444;2023-08-12T08:18:32;3.00;3.00;1.00
80861;PMS5003;71798;54.942;73.444;2023-08-12T08:22:03;4.00;4.00;2.00
80861;PMS5003;71798;54.942;73.444;2023-08-12T08:25:35;5.00;4.00;3.00
80861;PMS5003;71798;54.942;73.444;2023-08-12T08:29:06;8.00;7.00;4.00
80861;PMS5003;71798;54.942;73.444;2023-08-12T08:32:37;5.00;5.00;3.00
80861;PMS5003;71798;54.942;73.444;2023-08-12T08:39:44;3.25;3.00;2.00
80861;PMS5003;71798;54.942;73.444;2023-08-12T08:43:15;4.00;4.00;2.00
80861;PMS5003;71798;54.942;73.444;2023-08-12T08:46:46;6.00;6.00;4.00
80861;PMS5003;71798;54.942;73.444;2023-08-12T08:50:17;4.00;3.00;2.75
80861;PMS5003;71798;54.942;73.444;2023-08-12T08:57:24;4.00;4.00;2.50
80861;PMS5003;71798;54.942;73.444;2023-08-12T09:00:54;5.75;5.00;3.00
80861;PMS5003;71798;54.942;73.444;2023-08-12T09:04:26;7.00;6.00;3.50
80861;PMS5003;71798;54.942;73.444;2023-08-12T09:07:57;3.25;3.00;2.00
80861;PMS5003;71798;54.942;73.444;2023-08-12T09:11:28;4.00;3.00;3.00
80861;PMS5003;71798;54.942;73.444;2023-08-12T09:14:59;4.00;4.00;2.00
80861;PMS5003;71798;54.942;73.444;2023-08-12T09:18:32;3.50;3.00;2.00
80861;PMS5003;71798;54.942;73.444;2023-08-12T09:22:03;5.00;4.00;2.00
80861;PMS5003;71798;54.942;73.444;2023-08-12T09:25:33;5.00;4.00;3.00
80861;PMS5003;71798;54.942;73.444;2023-08-12T09:29:05;6.00;5.00;2.25
80861;PMS5003;71798;54.942;73.444;2023-08-12T09:36:12;9.00;5.00;3.00
80861;PMS5003;71798;54.942;73.444;2023-08-12T09:39:43;4.00;4.00;2.00
80861;PMS5003;71798;54.942;73.444;2023-08-12T09:43:18;4.00;3.25;2.00
80861;PMS5003;71798;54.942;73.444;2023-08-12T09:46:55;5.00;4.00;2.00
80861;PMS5003;71798;54.942;73.444;2023-08-12T09:50:21;4.00;3.00;2.00
80861;PMS5003;71798;54.942;73.444;2023-08-12T09:53:53;4.00;4.00;2.00
80861;PMS5003;71798;54.942;73.444;2023-08-12T09:57:25;5.00;4.00;2.00
80861;PMS5003;71798;54.942;73.444;2023-08-12T10:04:35;4.50;4.00;2.00
80861;PMS5003;71798;54.942;73.444;2023-08-12T10:08:03;4.00;4.00;2.00
80861;PMS5003;71798;54.942;73.444;2023-08-12T10:15:10;5.00;4.00;2.00
80861;PMS5003;71798;54.942;73.444;2023-08-12T10:18:41;3.00;3.00;2.00
80861;PMS5003;71798;54.942;73.444;2023-08-12T10:21:09;3.00;3.00;2.00
80861;PMS5003;71798;54.942;73.444;2023-08-12T10:23:36;3.00;3.00;1.00
80861;PMS5003;71798;54.942;73.444;2023-08-12T10:26:02;3.75;3.00;2.00
80861;PMS5003;71798;54.942;73.444;2023-08-12T10:28:31;3.00;3.00;2.00
80861;PMS5003;71798;54.942;73.444;2023-08-12T10:31:05;4.00;4.00;2.75
80861;PMS5003;71798;54.942;73.444;2023-08-12T10:33:35;2.00;2.00;1.00
80861;PMS5003;71798;54.942;73.444;2023-08-12T10:36:02;2.00;2.00;1.25
80861;PMS5003;71798;54.942;73.444;2023-08-12T10:38:29;4.00;3.00;2.00
80861;PMS5003;71798;54.942;73.444;2023-08-12T10:41:14;2.00;2.00;1.00
80861;PMS5003;71798;54.942;73.444;2023-08-12T10:46:32;6.00;5.00;2.00
80861;PMS5003;71798;54.942;73.444;2023-08-12T10:49:05;6.00;5.00;3.00
80861;PMS5003;71798;54.942;73.444;2023-08-12T10:51:51;4.50;4.00;2.00
80861;PMS5003;71798;54.942;73.444;2023-08-12T11:03:12;4.50;4.00;2.00
80861;PMS5003;71798;54.942;73.444;2023-08-12T11:05:07;3.75;3.00;2.00
80861;PMS5003;71798;54.942;73.444;2023-08-12T11:10:16;4.00;3.00;1.00
80861;PMS5003;71798;54.942;73.444;2023-08-12T11:12:47;6.00;5.00;2.00
80861;PMS5003;71798;54.942;73.444;2023-08-12T11:15:15;3.00;3.00;2.00
80861;PMS5003;71798;54.942;73.444;2023-08-12T11:17:41;3.25;3.00;1.00
80861;PMS5003;71798;54.942;73.444;2023-08-12T11:20:08;4.00;3.00;1.00
80861;PMS5003;71798;54.942;73.444;2023-08-12T11:22:36;4.00;3.50;2.00
80861;PMS5003;71798;54.942;73.444;2023-08-12T11:25:07;4.00;4.00;2.00
80861;PMS5003;71798;54.942;73.444;2023-08-12T11:30:07;3.00;3.00;2.00
80861;PMS5003;71798;54.942;73.444;2023-08-12T11:32:33;4.00;3.75;3.00
80861;PMS5003;71798;54.942;73.444;2023-08-12T11:35:00;4.00;4.00;2.00
80861;PMS5003;71798;54.942;73.444;2023-08-12T11:37:26;7.00;6.00;3.00
80861;PMS5003;71798;54.942;73.444;2023-08-12T11:39:52;5.00;4.00;2.00
80861;PMS5003;71798;54.942;73.444;2023-08-12T11:42:19;5.00;4.00;2.00
80861;PMS5003;71798;54.942;73.444;2023-08-12T11:44:45;5.00;4.00;3.00
80861;PMS5003;71798;54.942;73.444;2023-08-12T11:47:11;4.00;3.00;2.00
80861;PMS5003;71798;54.942;73.444;2023-08-12T11:49:37;5.00;4.00;3.00
80861;PMS5003;71798;54.942;73.444;2023-08-12T11:52:03;6.00;6.00;3.00
80861;PMS5003;71798;54.942;73.444;2023-08-12T11:54:30;6.00;6.00;4.00
80861;PMS5003;71798;54.942;73.444;2023-08-12T11:56:56;5.00;5.00;3.00
80861;PMS5003;71798;54.942;73.444;2023-08-12T11:59:23;7.00;6.00;3.00
80861;PMS5003;71798;54.942;73.444;2023-08-12T12:01:49;6.00;5.00;3.00
80861;PMS5003;71798;54.942;73.444;2023-08-12T12:04:16;7.00;6.00;3.00
80861;PMS5003;71798;54.942;73.444;2023-08-12T12:06:43;5.00;5.00;3.00
80861;PMS5003;71798;54.942;73.444;2023-08-12T12:09:10;8.00;6.00;4.00
80861;PMS5003;71798;54.942;73.444;2023-08-12T12:11:36;4.00;4.00;2.00
80861;PMS5003;71798;54.942;73.444;2023-08-12T12:14:03;7.75;6.00;2.00
80861;PMS5003;71798;54.942;73.444;2023-08-12T12:16:42;6.75;5.00;3.00
80861;PMS5003;71798;54.942;73.444;2023-08-12T12:21:42;4.00;3.00;2.00
80861;PMS5003;71798;54.942;73.444;2023-08-12T12:24:10;4.00;3.25;2.00
80861;PMS5003;71798;54.942;73.444;2023-08-12T12:26:36;5.00;4.00;3.00
80861;PMS5003;71798;54.942;73.444;2023-08-12T12:29:05;6.75;6.00;3.00
80861;PMS5003;71798;54.942;73.444;2023-08-12T12:31:35;5.00;4.00;2.75
80861;PMS5003;71798;54.942;73.444;2023-08-12T12:34:02;7.00;6.00;4.00
80861;PMS5003;71798;54.942;73.444;2023-08-12T12:36:30;6.50;6.00;4.00
80861;PMS5003;71798;54.942;73.444;2023-08-12T12:38:56;5.00;5.00;3.00
80861;PMS5003;71798;54.942;73.444;2023-08-12T12:41:22;5.00;4.00;2.00
80861;PMS5003;71798;54.942;73.444;2023-08-12T12:43:48;5.00;4.00;3.00
80861;PMS5003;71798;54.942;73.444;2023-08-12T12:46:15;5.00;5.00;3.00
80861;PMS5003;71798;54.942;73.444;2023-08-12T12:48:44;6.00;5.00;3.00
80861;PMS5003;71798;54.942;73.444;2023-08-12T12:51:11;5.00;5.00;3.00
80861;PMS5003;71798;54.942;73.444;2023-08-12T12:53:38;6.00;5.00;3.00
80861;PMS5003;71798;54.942;73.444;2023-08-12T12:56:04;6.00;5.00;3.00
80861;PMS5003;71798;54.942;73.444;2023-08-12T12:58:31;3.50;3.00;2.25
80861;PMS5003;71798;54.942;73.444;2023-08-12T13:01:00;5.00;5.00;2.00
80861;PMS5003;71798;54.942;73.444;2023-08-12T13:03:26;10.00;9.00;5.25
80861;PMS5003;71798;54.942;73.444;2023-08-12T13:05:52;7.50;6.50;4.00
80861;PMS5003;71798;54.942;73.444;2023-08-12T13:08:19;6.00;5.00;3.00
80861;PMS5003;71798;54.942;73.444;2023-08-12T13:10:45;6.50;5.00;2.25
80861;PMS5003;71798;54.942;73.444;2023-08-12T13:13:15;6.00;5.00;3.00
80861;PMS5003;71798;54.942;73.444;2023-08-12T13:15:45;6.00;5.00;4.00
80861;PMS5003;71798;54.942;73.444;2023-08-12T13:18:11;6.00;5.00;4.00
80861;PMS5003;71798;54.942;73.444;2023-08-12T13:20:37;5.25;4.00;3.00
80861;PMS5003;71798;54.942;73.444;2023-08-12T13:23:04;5.25;4.50;3.00
80861;PMS5003;71798;54.942;73.444;2023-08-12T13:25:31;3.50;3.00;2.00
80861;PMS5003;71798;54.942;73.444;2023-08-12T13:28:02;4.00;3.00;1.50
80861;PMS5003;71798;54.942;73.444;2023-08-12T13:30:28;6.00;5.00;3.00
80861;PMS5003;71798;54.942;73.444;2023-08-12T13:32:55;5.00;4.00;2.00
80861;PMS5003;71798;54.942;73.444;2023-08-12T13:35:21;5.00;5.00;3.00
80861;PMS5003;71798;54.942;73.444;2023-08-12T13:37:48;4.50;3.75;2.00
80861;PMS5003;71798;54.942;73.444;2023-08-12T13:40:14;5.75;4.25;2.75
80861;PMS5003;71798;54.942;73.444;2023-08-12T13:42:41;4.00;4.00;3.00
80861;PMS5003;71798;54.942;73.444;2023-08-12T13:45:07;6.00;5.00;3.00
80861;PMS5003;71798;54.942;73.444;2023-08-12T13:47:33;5.00;4.00;3.00
80861;PMS5003;71798;54.942;73.444;2023-08-12T13:50:00;5.00;4.00;2.00
80861;PMS5003;71798;54.942;73.444;2023-08-12T13:52:26;4.00;4.00;2.00
80861;PMS5003;71798;54.942;73.444;2023-08-12T13:54:52;6.00;5.00;3.25
80861;PMS5003;71798;54.942;73.444;2023-08-12T13:57:18;5.50;5.00;3.00
80861;PMS5003;71798;54.942;73.444;2023-08-12T13:59:44;6.00;4.00;2.00
80861;PMS5003;71798;54.942;73.444;2023-08-12T14:02:10;3.50;3.00;2.00
80861;PMS5003;71798;54.942;73.444;2023-08-12T14:04:36;5.00;4.00;3.00
80861;PMS5003;71798;54.942;73.444;2023-08-12T14:07:03;6.25;4.50;2.00
80861;PMS5003;71798;54.942;73.444;2023-08-12T14:09:29;4.00;4.00;3.00
80861;PMS5003;71798;54.942;73.444;2023-08-12T14:11:56;7.00;6.00;3.00
80861;PMS5003;71798;54.942;73.444;2023-08-12T14:14:22;7.00;5.00;3.00
80861;PMS5003;71798;54.942;73.444;2023-08-12T14:16:48;5.00;4.75;2.00
80861;PMS5003;71798;54.942;73.444;2023-08-12T14:19:15;5.00;5.00;3.00
80861;PMS5003;71798;54.942;73.444;2023-08-12T14:21:42;5.00;4.00;3.00
80861;PMS5003;71798;54.942;73.444;2023-08-12T14:24:09;7.00;6.00;3.25
80861;PMS5003;71798;54.942;73.444;2023-08-12T14:26:35;8.00;7.00;4.00
80861;PMS5003;71798;54.942;73.444;2023-08-12T14:29:02;9.00;8.00;4.25
80861;PMS5003;71798;54.942;73.444;2023-08-12T14:31:28;10.00;8.75;5.00
80861;PMS5003;71798;54.942;73.444;2023-08-12T14:33:54;10.00;7.25;4.00
80861;PMS5003;71798;54.942;73.444;2023-08-12T14:36:20;10.00;8.00;5.00
80861;PMS5003;71798;54.942;73.444;2023-08-12T14:38:46;9.00;8.00;4.00
80861;PMS5003;71798;54.942;73.444;2023-08-12T14:41:12;9.00;8.00;5.00
80861;PMS5003;71798;54.942;73.444;2023-08-12T14:43:38;6.00;5.00;3.00
80861;PMS5003;71798;54.942;73.444;2023-08-12T14:46:05;5.00;4.00;2.00
80861;PMS5003;71798;54.942;73.444;2023-08-12T14:48:32;6.00;5.00;3.00
80861;PMS5003;71798;54.942;73.444;2023-08-12T14:50:58;8.00;5.00;4.00
80861;PMS5003;71798;54.942;73.444;2023-08-12T14:53:24;7.75;6.00;3.00
80861;PMS5003;71798;54.942;73.444;2023-08-12T14:55:51;6.00;5.00;3.00
80861;PMS5003;71798;54.942;73.444;2023-08-12T14:58:17;7.00;6.00;3.75
80861;PMS5003;71798;54.942;73.444;2023-08-12T15:00:43;6.00;5.00;2.00
80861;PMS5003;71798;54.942;73.444;2023-08-12T15:03:09;6.00;5.00;3.00
80861;PMS5003;71798;54.942;73.444;2023-08-12T15:05:37;5.75;5.00;3.00
80861;PMS5003;71798;54.942;73.444;2023-08-12T15:08:03;3.00;2.00;1.00
80861;PMS5003;71798;54.942;73.444;2023-08-12T15:10:29;4.00;4.00;3.00
80861;PMS5003;71798;54.942;73.444;2023-08-12T15:12:55;5.00;3.00;1.75
80861;PMS5003;71798;54.942;73.444;2023-08-12T15:15:21;4.00;3.00;2.00
80861;PMS5003;71798;54.942;73.444;2023-08-12T15:17:47;7.00;6.75;4.00
80861;PMS5003;71798;54.942;73.444;2023-08-12T15:20:13;6.00;4.00;3.00
80861;PMS5003;71798;54.942;73.444;2023-08-12T15:22:39;8.00;7.00;5.00
80861;PMS5003;71798;54.942;73.444;2023-08-12T15:25:06;6.00;5.00;3.00
80861;PMS5003;71798;54.942;73.444;2023-08-12T15:27:32;6.00;5.00;3.00
80861;PMS5003;71798;54.942;73.444;2023-08-12T15:29:58;5.00;4.00;2.00
80861;PMS5003;71798;54.942;73.444;2023-08-12T15:32:26;6.00;5.00;3.00
80861;PMS5003;71798;54.942;73.444;2023-08-12T15:34:52;5.00;4.00;2.00
80861;PMS5003;71798;54.942;73.444;2023-08-12T15:37:19;5.00;5.00;3.00
80861;PMS5003;71798;54.942;73.444;2023-08-12T15:39:45;5.00;4.00;2.00
80861;PMS5003;71798;54.942;73.444;2023-08-12T15:42:11;6.00;5.00;3.00
80861;PMS5003;71798;54.942;73.444;2023-08-12T15:44:37;4.25;3.25;2.00
80861;PMS5003;71798;54.942;73.444;2023-08-12T15:47:03;6.00;5.00;3.00
80861;PMS5003;71798;54.942;73.444;2023-08-12T15:49:32;5.75;5.00;2.25
80861;PMS5003;71798;54.942;73.444;2023-08-12T15:51:59;3.50;3.00;2.00
80861;PMS5003;71798;54.942;73.444;2023-08-12T15:54:25;3.00;3.00;2.00
80861;PMS5003;71798;54.942;73.444;2023-08-12T15:56:51;5.00;4.00;2.00